Time;durP1;ratioP1;P1;durP2;ratioP2;P2;SDS_P1;SDS_P2;PMS_P1;PMS_P2;Temp;Humidity;BMP_temperature;BMP_pressure;BME280_temperature;BME280_humidity;BME280_pressure;Samples;Min_cycle;Max_cycle;Signal;HPM_P1;HPM_P2
2021/10/20 00:01:59;;;;;;;8.90;7.80;;;11.00;99.90;;;;;;4985102;28;20412;-81
2021/10/20 00:04:27;;;;;;;9.02;8.23;;;10.90;99.90;;;;;;4999066;28;20042;-80
2021/10/20 00:06:53;;;;;;;9.30;8.32;;;10.90;99.90;;;;;;4980910;28;20045;-80
2021/10/20 00:09:19;;;;;;;8.95;8.00;;;10.90;99.90;;;;;;4982910;28;20046;-80
2021/10/20 00:11:45;;;;;;;10.57;8.77;;;10.90;99.90;;;;;;4987959;28;20458;-81
2021/10/20 00:14:12;;;;;;;9.05;8.25;;;11.00;99.90;;;;;;4977171;28;20050;-80
2021/10/20 00:16:38;;;;;;;13.65;7.65;;;11.00;99.90;;;;;;4992708;28;20054;-80
2021/10/20 00:19:04;;;;;;;7.57;6.93;;;11.00;99.90;;;;;;4978841;28;20054;-80
2021/10/20 00:21:31;;;;;;;8.75;7.90;;;11.00;99.90;;;;;;4979523;28;20404;-79
2021/10/20 00:23:59;;;;;;;8.50;7.70;;;10.90;99.90;;;;;;4977109;28;20042;-80
2021/10/20 00:26:27;;;;;;;8.90;7.63;;;11.00;99.90;;;;;;4995560;28;20038;-78
2021/10/20 00:28:53;;;;;;;8.27;6.80;;;11.10;99.90;;;;;;4990923;28;20459;-80
2021/10/20 00:31:23;;;;;;;8.52;7.47;;;11.10;99.90;;;;;;4976478;28;20534;-80
2021/10/20 00:33:49;;;;;;;7.78;7.03;;;11.20;99.90;;;;;;4977617;28;20042;-80
2021/10/20 00:36:16;;;;;;;8.02;6.93;;;11.20;99.90;;;;;;4986742;28;20042;-78
2021/10/20 00:38:44;;;;;;;7.95;6.68;;;11.30;99.90;;;;;;4988791;28;20050;-80
2021/10/20 00:41:12;;;;;;;8.68;7.78;;;11.20;99.90;;;;;;4978342;28;20102;-80
2021/10/20 00:43:39;;;;;;;7.97;7.38;;;11.10;99.90;;;;;;4978305;28;20046;-80
2021/10/20 00:46:05;;;;;;;8.60;7.80;;;11.20;99.90;;;;;;4976781;28;20042;-81
2021/10/20 00:48:32;;;;;;;10.40;6.80;;;11.30;99.90;;;;;;4977391;28;20032;-80
2021/10/20 00:50:59;;;;;;;8.15;7.35;;;11.30;99.90;;;;;;4978143;28;20051;-80
2021/10/20 00:53:25;;;;;;;8.48;7.72;;;11.20;99.90;;;;;;4978094;28;20035;-79
2021/10/20 00:55:52;;;;;;;7.18;6.53;;;11.20;99.90;;;;;;4978999;28;20075;-79
2021/10/20 00:58:20;;;;;;;8.02;6.55;;;11.00;99.90;;;;;;4977048;28;20042;-79
2021/10/20 01:00:46;;;;;;;10.38;7.93;;;10.90;99.90;;;;;;4976671;28;20030;-80
2021/10/20 01:03:12;;;;;;;8.50;7.70;;;10.70;99.90;;;;;;4974408;28;20050;-80
2021/10/20 01:05:38;;;;;;;7.75;6.70;;;10.60;99.90;;;;;;4973956;28;20045;-80
2021/10/20 01:08:05;;;;;;;9.63;8.75;;;10.60;99.90;;;;;;4973137;28;20031;-79
2021/10/20 01:10:32;;;;;;;7.47;6.82;;;10.50;99.90;;;;;;4973464;28;20038;-79
2021/10/20 01:12:58;;;;;;;10.18;7.82;;;10.40;99.90;;;;;;4973977;28;20034;-80
2021/10/20 01:15:27;;;;;;;8.10;7.45;;;10.30;99.90;;;;;;4973578;28;20149;-80
2021/10/20 01:17:53;;;;;;;9.73;8.70;;;10.20;99.90;;;;;;4974696;28;20043;-80
2021/10/20 01:20:29;;;;;;;8.25;7.40;;;10.10;99.90;;;;;;4973865;28;20030;-80
2021/10/20 01:22:56;;;;;;;8.68;7.97;;;10.00;99.90;;;;;;4973778;28;20391;-79
2021/10/20 01:25:22;;;;;;;9.77;8.88;;;10.00;99.90;;;;;;4974122;28;20042;-80
2021/10/20 01:27:49;;;;;;;9.05;8.13;;;9.90;99.90;;;;;;4973862;28;20027;-80
2021/10/20 01:30:15;;;;;;;9.10;8.18;;;9.80;99.90;;;;;;4978572;28;20046;-80
2021/10/20 01:32:41;;;;;;;9.27;8.55;;;9.70;99.90;;;;;;4975318;28;20034;-80
2021/10/20 01:35:09;;;;;;;9.52;8.60;;;9.80;99.90;;;;;;4978477;28;20034;-80
2021/10/20 01:37:35;;;;;;;9.02;8.20;;;9.70;99.90;;;;;;4979852;28;20047;-80
2021/10/20 01:40:03;;;;;;;10.32;9.35;;;9.70;99.90;;;;;;4997271;28;20035;-80
2021/10/20 01:42:29;;;;;;;8.85;7.97;;;9.60;99.90;;;;;;4976251;28;20396;-79
2021/10/20 01:44:56;;;;;;;15.15;9.23;;;9.60;99.90;;;;;;4974975;28;20046;-80
2021/10/20 01:47:23;;;;;;;8.82;7.93;;;9.50;99.90;;;;;;4983455;28;20038;-80
2021/10/20 01:49:50;;;;;;;9.98;9.18;;;9.50;99.90;;;;;;4974044;28;20046;-80
2021/10/20 01:52:16;;;;;;;9.65;8.68;;;9.70;99.90;;;;;;4973800;28;20038;-80
2021/10/20 01:54:42;;;;;;;9.85;8.95;;;9.80;99.90;;;;;;4973074;28;20058;-80
2021/10/20 01:57:08;;;;;;;10.02;9.10;;;10.00;99.90;;;;;;4973315;28;20038;-79
2021/10/20 01:59:35;;;;;;;9.45;8.63;;;10.20;99.90;;;;;;4973095;28;20395;-80
2021/10/20 02:02:13;;;;;;;8.57;7.97;;;10.50;99.90;;;;;;4973417;28;20034;-80
2021/10/20 02:04:40;;;;;;;10.40;7.57;;;10.60;99.90;;;;;;4977004;28;20053;-80
2021/10/20 02:07:06;;;;;;;7.05;6.45;;;10.70;99.90;;;;;;4980810;28;20039;-80
2021/10/20 02:09:32;;;;;;;7.13;6.53;;;10.70;99.90;;;;;;4987962;28;20042;-80
2021/10/20 02:11:58;;;;;;;8.55;7.78;;;10.70;99.90;;;;;;4973317;28;20069;-80
2021/10/20 02:14:25;;;;;;;7.68;6.93;;;10.60;99.90;;;;;;4973169;28;20054;-80
2021/10/20 02:16:51;;;;;;;6.75;6.10;;;10.60;99.90;;;;;;4973251;28;20026;-79
2021/10/20 02:19:17;;;;;;;6.55;6.05;;;10.60;99.90;;;;;;4972841;28;20042;-80
2021/10/20 02:21:43;;;;;;;8.18;7.38;;;10.50;99.90;;;;;;4976817;28;20468;-80
2021/10/20 02:24:09;;;;;;;7.15;6.50;;;10.50;99.90;;;;;;4976608;28;20035;-79
2021/10/20 02:26:35;;;;;;;14.85;7.18;;;10.50;99.90;;;;;;4976842;28;20042;-78
2021/10/20 02:29:02;;;;;;;6.40;5.93;;;10.40;99.90;;;;;;4995639;28;20037;-77
2021/10/20 02:31:28;;;;;;;6.65;6.15;;;10.30;99.90;;;;;;4977391;28;20046;-79
2021/10/20 02:33:54;;;;;;;8.10;7.30;;;10.10;99.90;;;;;;4977238;28;20043;-80
2021/10/20 02:36:20;;;;;;;6.97;6.43;;;10.20;99.90;;;;;;4976783;28;20039;-78
2021/10/20 02:38:47;;;;;;;7.25;6.63;;;10.20;99.90;;;;;;4977060;28;20035;-79
2021/10/20 02:41:13;;;;;;;7.53;6.72;;;10.20;99.90;;;;;;4978978;28;20042;-79
2021/10/20 02:43:40;;;;;;;8.52;7.72;;;10.20;99.90;;;;;;4977174;28;20127;-79
2021/10/20 02:46:06;;;;;;;7.68;6.97;;;10.20;99.90;;;;;;4976698;28;20031;-79
2021/10/20 02:48:33;;;;;;;11.90;7.00;;;10.20;99.90;;;;;;4976229;28;20491;-79
2021/10/20 02:50:59;;;;;;;8.02;7.28;;;10.20;99.90;;;;;;4976728;28;20043;-79
2021/10/20 02:53:25;;;;;;;7.68;6.88;;;10.20;99.90;;;;;;4977386;28;20054;-79
2021/10/20 02:55:51;;;;;;;19.08;6.60;;;10.20;99.90;;;;;;4976353;28;20038;-80
2021/10/20 02:58:18;;;;;;;8.23;7.32;;;10.20;99.90;;;;;;4976393;28;20043;-79
2021/10/20 03:00:44;;;;;;;7.00;6.40;;;10.20;99.90;;;;;;4982894;28;20054;-80
2021/10/20 03:03:10;;;;;;;8.82;7.85;;;10.30;99.90;;;;;;4988511;28;20035;-79
2021/10/20 03:05:36;;;;;;;7.20;6.50;;;10.50;99.90;;;;;;4975942;28;20035;-79
2021/10/20 03:08:03;;;;;;;7.60;5.97;;;10.60;99.90;;;;;;4975859;28;20042;-79
2021/10/20 03:10:29;;;;;;;6.13;5.63;;;10.70;99.90;;;;;;4987036;28;20043;-80
2021/10/20 03:12:55;;;;;;;12.30;5.53;;;10.70;99.90;;;;;;4976460;28;20502;-79
2021/10/20 03:15:21;;;;;;;6.00;5.30;;;10.80;99.90;;;;;;4976265;28;20491;-79
2021/10/20 03:17:48;;;;;;;5.95;5.38;;;10.90;99.90;;;;;;4975113;28;20027;-81
2021/10/20 03:20:14;;;;;;;5.57;5.03;;;11.10;99.90;;;;;;4991256;28;20026;-80
2021/10/20 03:22:42;;;;;;;5.35;4.93;;;11.10;99.90;;;;;;4975518;28;20066;-80
2021/10/20 03:25:09;;;;;;;5.85;5.25;;;11.00;99.90;;;;;;4976713;28;20037;-81
2021/10/20 03:27:43;;;;;;;5.70;5.18;;;11.00;99.90;;;;;;4975709;28;20039;-80
2021/10/20 03:30:09;;;;;;;5.85;5.25;;;11.00;99.90;;;;;;4975778;28;20392;-80
2021/10/20 03:32:36;;;;;;;5.53;4.88;;;11.00;99.90;;;;;;4975606;28;20500;-81
2021/10/20 03:35:03;;;;;;;5.95;5.20;;;11.00;99.90;;;;;;4977090;28;20035;-80
2021/10/20 03:37:29;;;;;;;8.77;4.65;;;11.00;99.90;;;;;;4981769;28;20030;-79
2021/10/20 03:39:55;;;;;;;5.70;5.07;;;10.80;99.90;;;;;;4980585;28;20053;-80
2021/10/20 03:42:21;;;;;;;6.05;5.55;;;10.70;99.90;;;;;;4985879;28;20030;-79
2021/10/20 03:44:48;;;;;;;6.05;5.53;;;10.70;99.90;;;;;;4986542;28;20034;-79
2021/10/20 03:47:14;;;;;;;5.45;4.40;;;10.60;99.90;;;;;;4974486;28;20041;-79
2021/10/20 03:49:40;;;;;;;6.45;4.97;;;10.60;99.90;;;;;;4975552;28;20476;-78
2021/10/20 03:52:06;;;;;;;7.38;6.65;;;10.50;99.90;;;;;;4975451;28;20115;-80
2021/10/20 03:54:32;;;;;;;5.93;5.20;;;10.40;99.90;;;;;;4975026;28;20030;-79
2021/10/20 03:56:58;;;;;;;6.30;5.70;;;10.40;99.90;;;;;;4975761;28;20484;-79
2021/10/20 03:59:25;;;;;;;8.82;5.50;;;10.40;99.90;;;;;;4975393;28;20039;-79
2021/10/20 04:01:51;;;;;;;5.80;5.22;;;10.40;99.90;;;;;;4984610;28;20030;-79
2021/10/20 04:04:17;;;;;;;6.90;5.28;;;10.50;99.90;;;;;;4975671;28;20087;-80
2021/10/20 04:06:43;;;;;;;5.72;5.28;;;10.50;99.90;;;;;;4974841;28;20460;-79
2021/10/20 04:09:09;;;;;;;6.60;5.57;;;10.60;99.90;;;;;;4974983;28;20027;-79
2021/10/20 04:11:36;;;;;;;6.35;5.00;;;10.60;99.90;;;;;;4985018;28;20035;-80
2021/10/20 04:14:02;;;;;;;5.18;4.72;;;10.60;99.90;;;;;;4984301;28;20038;-80
2021/10/20 04:16:28;;;;;;;5.43;4.93;;;10.60;99.90;;;;;;4975226;28;20043;-81
2021/10/20 04:18:54;;;;;;;6.75;5.53;;;10.70;99.90;;;;;;4976236;28;20046;-81
2021/10/20 04:21:21;;;;;;;6.22;5.60;;;10.70;99.90;;;;;;4995045;28;20039;-80
2021/10/20 04:23:47;;;;;;;7.10;5.57;;;10.80;99.90;;;;;;4983159;28;20042;-81
2021/10/20 04:26:13;;;;;;;5.15;4.75;;;10.70;99.90;;;;;;4986681;28;20042;-82
2021/10/20 04:28:39;;;;;;;12.57;5.40;;;10.70;99.90;;;;;;4986051;28;20027;-82
2021/10/20 04:31:06;;;;;;;5.47;4.95;;;10.70;99.90;;;;;;4981941;28;20077;-81
2021/10/20 04:33:32;;;;;;;7.35;5.80;;;10.70;99.90;;;;;;4978977;28;20034;-81
2021/10/20 04:35:58;;;;;;;7.18;5.88;;;10.70;99.90;;;;;;4979921;28;20035;-80
2021/10/20 04:38:25;;;;;;;6.22;5.60;;;10.60;99.90;;;;;;4974185;28;20031;-81
2021/10/20 04:40:51;;;;;;;5.32;4.55;;;10.60;99.90;;;;;;4983187;28;20038;-80
2021/10/20 04:43:17;;;;;;;6.85;5.03;;;10.60;99.90;;;;;;4992746;28;20053;-80
2021/10/20 04:45:43;;;;;;;7.60;5.50;;;10.70;99.90;;;;;;4979117;28;20046;-81
2021/10/20 04:48:09;;;;;;;10.48;5.43;;;10.80;99.90;;;;;;4983860;28;20050;-82
2021/10/20 04:50:36;;;;;;;6.72;5.60;;;10.90;99.90;;;;;;4978803;28;20034;-80
2021/10/20 04:53:03;;;;;;;5.45;4.95;;;11.00;99.90;;;;;;4987391;28;20471;-81
2021/10/20 04:55:30;;;;;;;6.05;5.22;;;10.90;99.90;;;;;;4987327;28;20062;-80
2021/10/20 04:57:56;;;;;;;6.63;5.45;;;10.90;99.90;;;;;;4981453;28;20043;-81
2021/10/20 05:00:24;;;;;;;6.47;4.55;;;10.80;99.90;;;;;;4974490;28;20035;-81
2021/10/20 05:02:50;;;;;;;5.65;5.13;;;10.80;99.90;;;;;;4974408;28;20046;-80
2021/10/20 05:05:17;;;;;;;7.70;4.70;;;10.70;99.90;;;;;;4974052;28;20042;-81
2021/10/20 05:07:51;;;;;;;4.50;4.07;;;10.60;99.90;;;;;;4989882;28;20037;-81
2021/10/20 05:10:20;;;;;;;6.68;5.40;;;10.70;99.90;;;;;;4977768;28;20385;-81
2021/10/20 05:12:47;;;;;;;4.93;4.53;;;10.60;99.90;;;;;;4974198;28;20027;-81
2021/10/20 05:15:14;;;;;;;7.25;5.47;;;10.50;99.90;;;;;;4975377;28;20045;-81
2021/10/20 05:17:42;;;;;;;6.85;5.32;;;10.60;99.90;;;;;;4984769;28;20041;-82
2021/10/20 05:20:10;;;;;;;5.70;5.13;;;10.60;99.90;;;;;;4979647;28;20043;-80
2021/10/20 05:22:38;;;;;;;5.18;4.72;;;10.50;99.90;;;;;;4975851;28;20039;-81
2021/10/20 05:25:06;;;;;;;4.20;3.85;;;10.60;99.90;;;;;;4984501;28;20039;-81
2021/10/20 05:27:33;;;;;;;6.53;5.38;;;10.60;99.90;;;;;;4974144;28;20034;-81
2021/10/20 05:29:59;;;;;;;5.22;4.72;;;10.60;99.90;;;;;;4972936;28;20051;-81
2021/10/20 05:32:27;;;;;;;6.35;5.72;;;10.60;99.90;;;;;;4974059;28;20491;-80
2021/10/20 05:34:54;;;;;;;6.70;4.50;;;10.50;99.90;;;;;;4975722;28;20041;-81
2021/10/20 05:37:21;;;;;;;6.32;5.68;;;10.50;99.90;;;;;;4974425;28;20046;-81
2021/10/20 05:39:48;;;;;;;5.30;4.57;;;10.50;99.90;;;;;;4974130;28;20030;-82
2021/10/20 05:42:16;;;;;;;6.60;4.63;;;10.30;99.90;;;;;;4975705;28;20049;-80
2021/10/20 05:44:42;;;;;;;5.55;5.07;;;10.20;99.90;;;;;;4988902;28;20051;-80
2021/10/20 05:47:10;;;;;;;7.60;5.85;;;10.20;99.90;;;;;;4973030;28;20030;-80
2021/10/20 05:49:36;;;;;;;6.40;5.70;;;10.20;99.90;;;;;;4977350;28;20102;-80
2021/10/20 05:52:03;;;;;;;5.72;5.13;;;10.20;99.90;;;;;;4980292;28;20046;-80
2021/10/20 05:54:29;;;;;;;5.57;5.07;;;10.10;99.90;;;;;;4973785;28;20030;-80
2021/10/20 05:56:56;;;;;;;6.65;6.03;;;10.10;99.90;;;;;;4974089;28;20042;-80
2021/10/20 05:59:23;;;;;;;6.50;5.85;;;10.10;99.90;;;;;;4973943;28;20038;-81
2021/10/20 06:01:52;;;;;;;6.20;5.60;;;10.10;99.90;;;;;;4972967;28;20023;-80
2021/10/20 06:04:19;;;;;;;7.53;5.95;;;10.10;99.90;;;;;;4979470;28;20393;-81
2021/10/20 06:06:46;;;;;;;8.70;5.85;;;10.10;99.90;;;;;;4976186;28;20046;-80
2021/10/20 06:09:12;;;;;;;6.38;5.78;;;10.10;99.90;;;;;;4973259;28;20046;-81
2021/10/20 06:11:39;;;;;;;10.82;5.65;;;10.10;99.90;;;;;;4973527;28;20043;-80
2021/10/20 06:14:05;;;;;;;7.03;6.40;;;10.10;99.90;;;;;;4990626;28;20057;-80
2021/10/20 06:16:35;;;;;;;7.13;5.93;;;10.20;99.90;;;;;;4982512;28;20027;-80
2021/10/20 06:19:05;;;;;;;6.38;5.78;;;10.30;99.90;;;;;;4989161;28;20038;-81
2021/10/20 06:21:31;;;;;;;6.78;5.95;;;10.30;99.90;;;;;;4979482;28;20481;-80
2021/10/20 06:23:58;;;;;;;5.85;5.35;;;10.40;99.90;;;;;;4991503;28;20034;-81
2021/10/20 06:26:25;;;;;;;7.60;6.10;;;10.40;99.90;;;;;;4973137;28;20403;-81
2021/10/20 06:28:51;;;;;;;6.13;4.97;;;10.50;99.90;;;;;;4973744;28;20027;-82
2021/10/20 06:31:17;;;;;;;7.53;5.30;;;10.60;99.90;;;;;;4974147;28;20055;-83
2021/10/20 06:33:43;;;;;;;6.22;5.65;;;10.70;99.90;;;;;;4972904;28;20035;-81
2021/10/20 06:36:29;;;;;;;6.43;5.28;;;10.90;99.90;;;;;;4973783;28;20030;-81
2021/10/20 06:38:55;;;;;;;6.10;4.93;;;10.90;99.90;;;;;;4974199;28;20041;-81
2021/10/20 06:41:21;;;;;;;5.70;4.80;;;11.00;99.90;;;;;;4973168;28;20049;-81
2021/10/20 06:43:48;;;;;;;5.63;4.70;;;11.10;99.90;;;;;;4973069;28;20486;-81
2021/10/20 06:46:15;;;;;;;5.82;5.35;;;11.20;99.90;;;;;;4978288;28;20039;-80
2021/10/20 06:48:41;;;;;;;5.80;4.57;;;11.30;99.90;;;;;;4972618;28;20050;-82
2021/10/20 06:51:09;;;;;;;5.35;4.82;;;11.40;99.90;;;;;;4973429;28;20027;-82
2021/10/20 06:53:39;;;;;;;9.10;6.35;;;11.70;99.90;;;;;;4972935;28;20035;-82
2021/10/20 06:56:08;;;;;;;9.13;5.20;;;11.80;99.00;;;;;;4973349;28;20057;-81
2021/10/20 06:58:35;;;;;;;4.10;3.80;;;12.00;98.30;;;;;;4972788;28;20046;-81
2021/10/20 07:01:03;;;;;;;4.80;4.40;;;12.20;97.40;;;;;;4973987;28;20030;-82
2021/10/20 07:03:29;;;;;;;5.22;4.18;;;12.50;96.60;;;;;;4972350;28;20049;-83
2021/10/20 07:05:55;;;;;;;4.68;4.15;;;12.60;95.80;;;;;;4981384;28;20478;-81
2021/10/20 07:08:21;;;;;;;7.13;4.30;;;12.90;95.30;;;;;;4986266;28;20038;-82
2021/10/20 07:10:48;;;;;;;4.43;3.92;;;13.00;94.70;;;;;;4989035;28;20031;-80
2021/10/20 07:13:15;;;;;;;6.40;3.75;;;13.30;93.60;;;;;;4991921;28;20436;-81
2021/10/20 07:15:47;;;;;;;4.95;4.45;;;13.50;93.40;;;;;;4975377;28;20030;-80
2021/10/20 07:18:14;;;;;;;7.78;4.05;;;13.70;92.40;;;;;;4976412;28;20042;-83
2021/10/20 07:20:40;;;;;;;4.53;4.00;;;14.10;91.30;;;;;;4975742;28;20372;-80
2021/10/20 07:23:06;;;;;;;5.07;3.45;;;14.40;90.80;;;;;;4976152;28;20037;-81
2021/10/20 07:25:32;;;;;;;4.97;3.53;;;14.70;90.20;;;;;;4976406;28;20483;-82
2021/10/20 07:27:59;;;;;;;5.88;3.90;;;15.20;86.60;;;;;;4976039;28;20043;-81
2021/10/20 07:30:25;;;;;;;4.28;3.17;;;16.10;84.50;;;;;;5006619;28;20062;-82
2021/10/20 07:32:51;;;;;;;6.63;3.63;;;16.40;80.00;;;;;;4976740;28;20031;-83
2021/10/20 07:35:19;;;;;;;5.68;3.67;;;16.30;80.10;;;;;;4984694;28;20035;-82
2021/10/20 07:37:45;;;;;;;4.25;3.42;;;16.10;79.40;;;;;;4991807;28;20041;-83
2021/10/20 07:40:13;;;;;;;4.35;3.88;;;15.50;80.90;;;;;;4994824;28;20467;-82
2021/10/20 07:42:42;;;;;;;4.28;3.55;;;15.20;81.90;;;;;;4995901;28;20054;-84
2021/10/20 07:45:10;;;;;;;3.83;2.88;;;14.90;82.70;;;;;;4993162;28;20038;-81
2021/10/20 07:47:37;;;;;;;4.93;3.78;;;15.00;83.20;;;;;;4974913;28;20031;-82
2021/10/20 07:50:05;;;;;;;5.45;4.40;;;15.50;81.80;;;;;;4979537;28;20053;-82
2021/10/20 07:52:33;;;;;;;4.32;3.53;;;15.40;81.30;;;;;;4976038;28;20030;-80
2021/10/20 07:55:00;;;;;;;4.53;4.07;;;14.90;83.40;;;;;;4975628;28;20031;-80
2021/10/20 07:57:29;;;;;;;6.78;4.28;;;14.50;84.50;;;;;;4974889;28;20035;-76
2021/10/20 07:59:55;;;;;;;5.65;3.65;;;14.20;85.80;;;;;;4975920;28;20039;-81
2021/10/20 08:02:22;;;;;;;7.78;4.90;;;14.00;86.90;;;;;;4973927;28;20039;-81
2021/10/20 08:04:48;;;;;;;4.35;3.97;;;13.90;87.70;;;;;;4973441;28;20050;-76
2021/10/20 08:07:14;;;;;;;4.60;4.20;;;13.80;88.90;;;;;;4977852;28;20035;-83
2021/10/20 08:09:42;;;;;;;5.93;4.80;;;13.80;88.80;;;;;;4976691;28;20041;-86
2021/10/20 08:12:08;;;;;;;8.15;4.40;;;13.80;88.60;;;;;;4975948;28;20054;-84
2021/10/20 08:14:40;;;;;;;4.75;4.25;;;13.80;89.70;;;;;;4984504;28;20208;-84
2021/10/20 08:17:08;;;;;;;5.43;4.55;;;13.90;89.50;;;;;;4982507;28;20042;-84
2021/10/20 08:19:35;;;;;;;5.75;5.22;;;14.00;89.40;;;;;;4984887;28;20053;-83
2021/10/20 08:22:01;;;;;;;5.68;4.93;;;14.10;90.00;;;;;;4976596;28;20050;-85
2021/10/20 08:24:28;;;;;;;8.15;5.45;;;14.30;87.90;;;;;;4992098;28;20479;-78
2021/10/20 08:26:54;;;;;;;8.07;5.32;;;14.40;88.00;;;;;;4983005;28;20039;-85
2021/10/20 08:29:21;;;;;;;4.82;4.35;;;14.50;86.40;;;;;;4976581;28;20027;-86
2021/10/20 08:31:47;;;;;;;9.80;4.40;;;14.60;86.70;;;;;;4976473;28;20291;-87
2021/10/20 08:34:13;;;;;;;6.20;4.45;;;14.70;86.20;;;;;;4990301;28;20486;-83
2021/10/20 08:36:39;;;;;;;5.00;4.50;;;14.70;86.30;;;;;;4992427;28;20034;-87
2021/10/20 08:39:05;;;;;;;4.68;4.28;;;14.90;85.50;;;;;;4992431;28;20526;-88
2021/10/20 08:41:32;;;;;;;5.65;4.53;;;14.80;85.70;;;;;;4989177;28;20053;-76
2021/10/20 08:43:59;;;;;;;4.50;4.10;;;14.80;86.20;;;;;;4991939;28;20038;-75
2021/10/20 08:46:26;;;;;;;4.45;4.05;;;14.80;85.80;;;;;;4993738;28;20050;-86
2021/10/20 08:48:54;;;;;;;4.30;3.92;;;14.70;86.70;;;;;;4991708;28;20030;-88
2021/10/20 08:51:22;;;;;;;5.03;4.55;;;14.70;85.90;;;;;;4995497;28;20076;-83
2021/10/20 08:53:50;;;;;;;4.57;4.18;;;14.70;86.30;;;;;;4985653;28;20042;-85
2021/10/20 08:56:17;;;;;;;4.75;4.30;;;14.70;86.80;;;;;;4975862;28;20059;-83
2021/10/20 08:58:44;;;;;;;5.60;4.75;;;14.80;86.40;;;;;;4974553;28;20456;-86
2021/10/20 09:01:11;;;;;;;5.22;4.32;;;14.90;86.00;;;;;;4976059;28;20090;-80
2021/10/20 09:03:37;;;;;;;5.00;4.38;;;15.00;85.70;;;;;;4974615;28;20054;-82
2021/10/20 09:06:03;;;;;;;4.38;3.10;;;15.00;86.10;;;;;;4975138;28;20050;-86
2021/10/20 09:08:46;;;;;;;4.00;3.58;;;15.00;85.40;;;;;;4983218;28;20034;-82
2021/10/20 09:11:35;;;;;;;4.18;3.78;;;15.10;84.80;;;;;;4975315;28;20498;-84
2021/10/20 09:14:07;;;;;;;4.53;3.90;;;15.20;84.10;;;;;;4975150;28;20035;-91
2021/10/20 09:16:35;;;;;;;4.80;3.80;;;15.30;83.30;;;;;;4977253;28;20035;-84
2021/10/20 09:19:22;;;;;;;5.50;3.92;;;15.30;83.40;;;;;;4993343;28;20038;-82
2021/10/20 09:21:56;;;;;;;4.28;3.88;;;15.30;82.60;;;;;;4975015;28;20046;-84
2021/10/20 09:24:43;;;;;;;4.75;3.95;;;15.30;83.00;;;;;;4974757;28;20365;-87
2021/10/20 09:27:27;;;;;;;4.22;3.83;;;15.30;82.10;;;;;;4974347;28;20043;-83
2021/10/20 09:30:11;;;;;;;7.40;4.72;;;15.30;82.10;;;;;;4982319;28;20038;-83
2021/10/20 09:32:38;;;;;;;6.53;4.10;;;15.50;82.00;;;;;;4947644;29;20050;-84
2021/10/20 09:35:05;;;;;;;4.75;3.92;;;15.50;81.40;;;;;;4961521;28;20035;-82
2021/10/20 09:37:33;;;;;;;8.25;4.43;;;15.60;81.20;;;;;;4969679;28;20043;-88
2021/10/20 09:40:17;;;;;;;5.30;3.85;;;15.70;81.60;;;;;;4982285;28;20027;-85
2021/10/20 09:42:48;;;;;;;8.13;3.97;;;15.70;80.90;;;;;;4986541;28;20041;-89
2021/10/20 09:45:16;;;;;;;10.85;3.97;;;15.70;80.40;;;;;;4981445;28;20049;-86
2021/10/20 09:47:43;;;;;;;4.40;3.20;;;15.70;80.60;;;;;;4989295;28;20043;-87
2021/10/20 09:50:11;;;;;;;4.45;3.92;;;15.70;81.00;;;;;;4986667;28;20033;-85
2021/10/20 09:52:51;;;;;;;4.90;4.05;;;15.80;80.60;;;;;;4979833;28;20365;-85
2021/10/20 09:55:28;;;;;;;4.95;4.00;;;15.70;80.50;;;;;;4988651;28;20027;-85
2021/10/20 09:58:12;;;;;;;5.72;4.28;;;15.90;80.50;;;;;;4973364;28;20498;-86
2021/10/20 10:00:40;;;;;;;6.47;4.13;;;16.10;80.30;;;;;;4958183;28;20043;-85
2021/10/20 10:03:07;;;;;;;4.53;4.07;;;16.10;80.10;;;;;;4962704;28;20046;-78
2021/10/20 10:05:34;;;;;;;6.82;4.50;;;16.10;80.00;;;;;;4955753;28;20035;-79
2021/10/20 10:08:00;;;;;;;6.13;4.63;;;16.00;79.60;;;;;;4957679;28;20085;-77
2021/10/20 10:10:27;;;;;;;4.78;3.97;;;16.00;79.90;;;;;;4971047;28;20034;-80
2021/10/20 10:13:03;;;;;;;6.20;5.07;;;16.20;79.90;;;;;;4957525;28;20032;-80
2021/10/20 10:15:29;;;;;;;4.55;3.70;;;16.40;78.80;;;;;;4956647;28;20032;-78
2021/10/20 10:17:56;;;;;;;5.18;3.55;;;16.90;78.00;;;;;;4954451;28;20050;-82
2021/10/20 10:20:28;;;;;;;4.60;3.60;;;17.30;76.00;;;;;;4954789;28;20034;-83
2021/10/20 10:22:57;;;;;;;7.70;3.63;;;17.60;74.80;;;;;;4959357;28;20027;-81
2021/10/20 10:25:29;;;;;;;6.55;3.90;;;17.70;74.60;;;;;;4957212;28;20046;-81
2021/10/20 10:28:17;;;;;;;7.10;3.88;;;17.70;74.00;;;;;;4936767;28;20050;-76
2021/10/20 10:30:50;;;;;;;3.80;3.33;;;17.70;74.90;;;;;;4966150;28;20049;-77
2021/10/20 10:33:27;;;;;;;4.22;3.80;;;17.70;74.00;;;;;;4973423;28;20487;-80
2021/10/20 10:36:03;;;;;;;3.80;3.50;;;17.70;74.10;;;;;;4972748;28;20038;-80
2021/10/20 10:38:41;;;;;;;4.65;3.25;;;17.50;75.00;;;;;;4973231;28;20038;-79
2021/10/20 10:41:22;;;;;;;3.80;3.15;;;17.40;75.30;;;;;;4988984;28;20491;-81
2021/10/20 10:44:04;;;;;;;4.13;3.22;;;17.30;75.60;;;;;;4978238;28;20061;-87
2021/10/20 10:46:33;;;;;;;4.22;3.80;;;17.20;75.90;;;;;;4978597;28;20375;-77
2021/10/20 10:49:02;;;;;;;3.88;3.13;;;17.20;75.90;;;;;;4994701;28;20042;-85
2021/10/20 10:51:28;;;;;;;6.47;3.83;;;17.30;76.50;;;;;;4982837;28;20035;-83
2021/10/20 10:53:58;;;;;;;4.65;2.95;;;17.20;76.10;;;;;;4997243;28;20065;-84
2021/10/20 10:56:25;;;;;;;4.00;3.28;;;17.20;77.20;;;;;;4976103;28;20480;-84
2021/10/20 10:59:04;;;;;;;3.92;3.38;;;17.10;77.30;;;;;;4976308;28;20039;-81
2021/10/20 11:01:45;;;;;;;5.60;3.75;;;17.10;77.80;;;;;;4976334;28;20379;-80
2021/10/20 11:04:33;;;;;;;;;;;17.10;78.00;;;;;;4981320;28;20057;-80
2021/10/20 11:07:02;;;;;;;3.63;3.08;;;17.10;78.40;;;;;;4993359;28;19921;-80
2021/10/20 11:09:34;;;;;;;4.90;2.97;;;17.00;78.50;;;;;;4994580;28;20034;-80
2021/10/20 11:12:03;;;;;;;5.65;4.03;;;17.00;79.00;;;;;;4985619;28;20035;-80
2021/10/20 11:14:30;;;;;;;4.95;3.30;;;17.00;79.30;;;;;;4976455;28;20041;-80
2021/10/20 11:17:10;;;;;;;3.72;2.88;;;17.00;79.10;;;;;;4976441;28;20041;-83
2021/10/20 11:19:37;;;;;;;4.25;3.13;;;17.20;78.90;;;;;;4975806;28;20034;-82
2021/10/20 11:22:04;;;;;;;5.43;3.28;;;17.40;78.20;;;;;;4987579;28;20049;-82
2021/10/20 11:24:35;;;;;;;4.05;3.58;;;17.60;78.10;;;;;;4990552;28;20030;-79
2021/10/20 11:27:05;;;;;;;3.17;2.90;;;17.70;78.10;;;;;;4990932;28;20043;-83
2021/10/20 11:29:49;;;;;;;5.30;3.17;;;17.90;77.20;;;;;;4977096;28;20051;-78
2021/10/20 11:32:17;;;;;;;4.93;3.97;;;18.00;77.70;;;;;;4977727;28;20053;-83
2021/10/20 11:34:45;;;;;;;3.28;2.63;;;17.90;77.60;;;;;;4982689;28;20038;-81
2021/10/20 11:37:13;;;;;;;3.20;2.90;;;17.80;77.90;;;;;;4985234;28;20031;-81
2021/10/20 11:39:40;;;;;;;3.38;3.00;;;17.70;78.10;;;;;;4978462;28;20365;-80
2021/10/20 11:42:11;;;;;;;4.38;2.95;;;17.80;78.40;;;;;;4979182;28;20379;-80
2021/10/20 11:44:40;;;;;;;3.83;2.85;;;17.70;78.50;;;;;;4976007;28;20046;-80
2021/10/20 11:47:13;;;;;;;3.20;2.80;;;17.80;78.50;;;;;;4975684;28;20039;-84
2021/10/20 11:49:45;;;;;;;5.07;3.72;;;17.80;78.00;;;;;;4975848;28;20043;-84
2021/10/20 11:52:13;;;;;;;3.95;3.20;;;17.90;78.70;;;;;;4975403;28;20371;-82
2021/10/20 11:54:40;;;;;;;4.28;3.10;;;17.90;78.70;;;;;;4975186;28;20379;-83
2021/10/20 11:57:10;;;;;;;3.28;2.97;;;18.00;78.50;;;;;;4976177;28;20376;-82
2021/10/20 11:59:37;;;;;;;4.53;2.60;;;18.20;77.90;;;;;;4975300;28;20038;-82
2021/10/20 12:02:04;;;;;;;4.20;2.58;;;18.40;77.10;;;;;;4975899;28;20031;-84
2021/10/20 12:04:30;;;;;;;7.15;3.47;;;18.80;75.30;;;;;;4974197;28;20038;-83
2021/10/20 12:06:59;;;;;;;3.28;2.97;;;18.80;75.40;;;;;;4975415;28;20049;-83
2021/10/20 12:09:28;;;;;;;3.85;2.83;;;18.80;75.50;;;;;;4975811;28;20034;-83
2021/10/20 12:11:57;;;;;;;4.82;3.00;;;18.80;75.40;;;;;;4975078;28;20046;-81
2021/10/20 12:14:31;;;;;;;3.22;2.92;;;19.00;75.30;;;;;;4993047;28;20030;-82
2021/10/20 12:17:01;;;;;;;4.47;3.30;;;19.20;74.60;;;;;;4992986;28;20027;-81
2021/10/20 12:19:31;;;;;;;3.25;2.85;;;19.00;74.70;;;;;;4991544;28;20035;-82
2021/10/20 12:22:04;;;;;;;4.57;3.45;;;18.80;76.00;;;;;;4990768;28;20034;-83
2021/10/20 12:24:51;;;;;;;4.40;3.20;;;18.60;76.50;;;;;;4974919;28;20043;-83
2021/10/20 12:27:22;;;;;;;7.82;3.22;;;18.50;76.70;;;;;;4974936;28;20030;-82
2021/10/20 12:29:59;;;;;;;5.22;3.33;;;18.50;77.10;;;;;;4975268;28;20490;-83
2021/10/20 12:32:29;;;;;;;3.55;2.88;;;18.40;77.20;;;;;;4975180;28;20049;-80
2021/10/20 12:34:58;;;;;;;11.27;3.20;;;18.40;77.50;;;;;;4974735;28;20042;-79
2021/10/20 12:37:29;;;;;;;9.32;3.00;;;18.40;77.50;;;;;;4975469;28;20039;-85
2021/10/20 12:39:55;;;;;;;4.30;3.15;;;18.40;77.50;;;;;;4974243;28;20030;-80
2021/10/20 12:42:22;;;;;;;10.25;3.28;;;18.30;77.20;;;;;;4986036;28;20023;-75
2021/10/20 12:44:55;;;;;;;3.17;2.67;;;18.30;77.60;;;;;;4973755;28;20042;-74
2021/10/20 12:47:26;;;;;;;5.55;3.38;;;18.40;77.40;;;;;;4984822;28;20502;-78
2021/10/20 12:49:53;;;;;;;3.63;2.92;;;18.40;77.70;;;;;;4989611;28;20038;-79
2021/10/20 12:52:20;;;;;;;4.07;3.00;;;18.40;77.40;;;;;;4977729;28;20356;-79
2021/10/20 12:54:53;;;;;;;5.85;2.63;;;18.40;77.20;;;;;;4979711;28;20488;-79